sensor_id;sensor_type;location;lat;lon;timestamp;P1;durP1;ratioP1;P2;durP2;ratioP2
422;SDS011;198;48.752;9.180;2022-10-04T00:00:55;21.33;;;8.87;;
422;SDS011;198;48.752;9.180;2022-10-04T00:03:09;29.13;;;7.63;;
422;SDS011;198;48.752;9.180;2022-10-04T00:05:41;15.20;;;7.90;;
422;SDS011;198;48.752;9.180;2022-10-04T00:13:45;24.50;;;9.40;;
422;SDS011;198;48.752;9.180;2022-10-04T00:16:30;18.40;;;8.20;;
422;SDS011;198;48.752;9.180;2022-10-04T00:19:00;17.17;;;7.83;;
422;SDS011;198;48.752;9.180;2022-10-04T00:24:37;20.10;;;10.20;;
422;SDS011;198;48.752;9.180;2022-10-04T00:27:32;18.70;;;8.47;;
422;SDS011;198;48.752;9.180;2022-10-04T00:40:37;17.13;;;8.10;;
422;SDS011;198;48.752;9.180;2022-10-04T00:45:45;24.33;;;8.80;;
422;SDS011;198;48.752;9.180;2022-10-04T00:48:25;16.93;;;8.50;;
422;SDS011;198;48.752;9.180;2022-10-04T00:53:51;21.40;;;9.50;;
422;SDS011;198;48.752;9.180;2022-10-04T00:56:24;20.10;;;8.07;;
422;SDS011;198;48.752;9.180;2022-10-04T00:59:05;16.60;;;7.30;;
422;SDS011;198;48.752;9.180;2022-10-04T01:01:36;17.90;;;6.07;;
422;SDS011;198;48.752;9.180;2022-10-04T01:04:03;16.83;;;7.40;;
422;SDS011;198;48.752;9.180;2022-10-04T01:06:38;19.00;;;7.40;;
422;SDS011;198;48.752;9.180;2022-10-04T01:09:06;17.77;;;8.37;;
422;SDS011;198;48.752;9.180;2022-10-04T01:11:35;26.23;;;7.73;;
422;SDS011;198;48.752;9.180;2022-10-04T01:14:07;34.87;;;8.67;;
422;SDS011;198;48.752;9.180;2022-10-04T01:16:40;20.10;;;7.53;;
422;SDS011;198;48.752;9.180;2022-10-04T01:21:58;19.60;;;8.80;;
422;SDS011;198;48.752;9.180;2022-10-04T01:24:41;15.47;;;7.37;;
422;SDS011;198;48.752;9.180;2022-10-04T01:27:29;21.60;;;9.07;;
422;SDS011;198;48.752;9.180;2022-10-04T01:30:06;16.20;;;7.27;;
422;SDS011;198;48.752;9.180;2022-10-04T01:32:40;21.73;;;8.27;;
422;SDS011;198;48.752;9.180;2022-10-04T01:35:07;14.80;;;8.30;;
422;SDS011;198;48.752;9.180;2022-10-04T01:37:35;15.07;;;8.53;;
422;SDS011;198;48.752;9.180;2022-10-04T01:40:03;18.10;;;8.37;;
422;SDS011;198;48.752;9.180;2022-10-04T01:42:35;16.47;;;8.03;;
422;SDS011;198;48.752;9.180;2022-10-04T01:45:13;27.63;;;8.40;;
422;SDS011;198;48.752;9.180;2022-10-04T01:47:58;13.10;;;7.10;;
422;SDS011;198;48.752;9.180;2022-10-04T01:50:32;14.97;;;7.00;;
422;SDS011;198;48.752;9.180;2022-10-04T01:55:49;35.63;;;9.67;;
422;SDS011;198;48.752;9.180;2022-10-04T01:58:22;17.50;;;8.37;;
422;SDS011;198;48.752;9.180;2022-10-04T02:00:55;23.60;;;8.93;;
422;SDS011;198;48.752;9.180;2022-10-04T02:03:34;22.23;;;9.53;;
422;SDS011;198;48.752;9.180;2022-10-04T02:06:04;18.30;;;9.20;;
422;SDS011;198;48.752;9.180;2022-10-04T02:08:34;16.00;;;8.23;;
422;SDS011;198;48.752;9.180;2022-10-04T02:11:03;21.17;;;9.63;;
422;SDS011;198;48.752;9.180;2022-10-04T02:13:37;18.67;;;9.57;;
422;SDS011;198;48.752;9.180;2022-10-04T02:16:08;23.90;;;8.80;;
422;SDS011;198;48.752;9.180;2022-10-04T02:18:35;17.17;;;9.40;;
422;SDS011;198;48.752;9.180;2022-10-04T02:21:03;26.40;;;8.03;;
422;SDS011;198;48.752;9.180;2022-10-04T02:23:30;16.77;;;9.43;;
422;SDS011;198;48.752;9.180;2022-10-04T02:25:57;17.20;;;9.17;;
422;SDS011;198;48.752;9.180;2022-10-04T02:28:23;16.73;;;8.77;;
422;SDS011;198;48.752;9.180;2022-10-04T02:30:49;23.07;;;9.43;;
422;SDS011;198;48.752;9.180;2022-10-04T02:33:42;19.43;;;9.63;;
422;SDS011;198;48.752;9.180;2022-10-04T02:36:10;21.10;;;8.73;;
422;SDS011;198;48.752;9.180;2022-10-04T02:38:39;19.33;;;9.10;;
422;SDS011;198;48.752;9.180;2022-10-04T02:44:24;19.20;;;9.07;;
422;SDS011;198;48.752;9.180;2022-10-04T02:47:11;21.10;;;9.60;;
422;SDS011;198;48.752;9.180;2022-10-04T02:49:57;17.53;;;7.40;;
422;SDS011;198;48.752;9.180;2022-10-04T02:52:38;20.90;;;9.40;;
422;SDS011;198;48.752;9.180;2022-10-04T02:55:19;24.10;;;10.40;;
422;SDS011;198;48.752;9.180;2022-10-04T02:57:48;20.47;;;8.60;;
422;SDS011;198;48.752;9.180;2022-10-04T03:00:22;17.77;;;8.13;;
422;SDS011;198;48.752;9.180;2022-10-04T03:05:42;26.87;;;7.93;;
422;SDS011;198;48.752;9.180;2022-10-04T03:08:11;13.83;;;7.13;;
422;SDS011;198;48.752;9.180;2022-10-04T03:10:38;14.50;;;5.30;;
422;SDS011;198;48.752;9.180;2022-10-04T03:13:07;16.03;;;6.30;;
422;SDS011;198;48.752;9.180;2022-10-04T03:15:32;21.10;;;7.37;;
422;SDS011;198;48.752;9.180;2022-10-04T03:17:58;15.23;;;6.37;;
422;SDS011;198;48.752;9.180;2022-10-04T03:20:24;17.73;;;6.70;;
422;SDS011;198;48.752;9.180;2022-10-04T03:22:51;12.00;;;5.80;;
422;SDS011;198;48.752;9.180;2022-10-04T03:25:29;16.60;;;6.13;;
422;SDS011;198;48.752;9.180;2022-10-04T03:28:02;21.63;;;6.10;;
422;SDS011;198;48.752;9.180;2022-10-04T03:30:29;12.10;;;7.20;;
422;SDS011;198;48.752;9.180;2022-10-04T03:32:56;17.70;;;6.73;;
422;SDS011;198;48.752;9.180;2022-10-04T03:37:58;9.90;;;6.37;;
422;SDS011;198;48.752;9.180;2022-10-04T03:40:28;14.73;;;7.10;;
422;SDS011;198;48.752;9.180;2022-10-04T03:42:56;17.37;;;7.03;;
422;SDS011;198;48.752;9.180;2022-10-04T03:45:25;17.30;;;6.47;;
422;SDS011;198;48.752;9.180;2022-10-04T03:47:52;15.60;;;7.00;;
422;SDS011;198;48.752;9.180;2022-10-04T03:50:30;12.13;;;6.83;;
422;SDS011;198;48.752;9.180;2022-10-04T03:53:06;19.37;;;6.70;;
422;SDS011;198;48.752;9.180;2022-10-04T03:55:38;17.33;;;6.77;;
422;SDS011;198;48.752;9.180;2022-10-04T03:58:08;16.27;;;6.80;;
422;SDS011;198;48.752;9.180;2022-10-04T04:00:36;18.33;;;6.53;;
422;SDS011;198;48.752;9.180;2022-10-04T04:03:06;12.93;;;6.57;;
422;SDS011;198;48.752;9.180;2022-10-04T04:05:41;19.40;;;5.80;;
422;SDS011;198;48.752;9.180;2022-10-04T04:08:24;17.87;;;6.30;;
422;SDS011;198;48.752;9.180;2022-10-04T04:10:52;17.83;;;6.30;;
422;SDS011;198;48.752;9.180;2022-10-04T04:13:28;16.30;;;6.60;;
422;SDS011;198;48.752;9.180;2022-10-04T04:16:16;10.03;;;5.73;;
422;SDS011;198;48.752;9.180;2022-10-04T04:18:43;14.97;;;6.20;;
422;SDS011;198;48.752;9.180;2022-10-04T04:21:13;14.40;;;5.53;;
422;SDS011;198;48.752;9.180;2022-10-04T04:23:43;8.70;;;4.60;;
422;SDS011;198;48.752;9.180;2022-10-04T04:29:13;15.63;;;7.10;;
422;SDS011;198;48.752;9.180;2022-10-04T04:34:49;12.73;;;4.03;;
422;SDS011;198;48.752;9.180;2022-10-04T04:37:21;7.77;;;4.90;;
422;SDS011;198;48.752;9.180;2022-10-04T04:39:48;13.80;;;5.67;;
422;SDS011;198;48.752;9.180;2022-10-04T04:42:20;15.53;;;5.30;;
422;SDS011;198;48.752;9.180;2022-10-04T04:44:56;18.47;;;4.87;;
422;SDS011;198;48.752;9.180;2022-10-04T04:47:42;9.27;;;4.87;;
422;SDS011;198;48.752;9.180;2022-10-04T04:50:21;9.50;;;5.23;;
422;SDS011;198;48.752;9.180;2022-10-04T04:52:50;21.43;;;6.47;;
422;SDS011;198;48.752;9.180;2022-10-04T04:55:17;16.80;;;5.27;;
422;SDS011;198;48.752;9.180;2022-10-04T04:57:47;15.40;;;5.00;;
422;SDS011;198;48.752;9.180;2022-10-04T05:00:23;7.10;;;4.67;;
422;SDS011;198;48.752;9.180;2022-10-04T05:02:58;14.53;;;5.00;;
422;SDS011;198;48.752;9.180;2022-10-04T05:05:26;12.13;;;4.50;;
422;SDS011;198;48.752;9.180;2022-10-04T05:08:14;8.60;;;4.43;;
422;SDS011;198;48.752;9.180;2022-10-04T05:10:51;11.70;;;4.80;;
422;SDS011;198;48.752;9.180;2022-10-04T05:16:02;14.53;;;4.80;;
422;SDS011;198;48.752;9.180;2022-10-04T05:18:29;10.10;;;4.73;;
422;SDS011;198;48.752;9.180;2022-10-04T05:21:01;9.40;;;4.40;;
422;SDS011;198;48.752;9.180;2022-10-04T05:23:31;7.13;;;4.17;;
422;SDS011;198;48.752;9.180;2022-10-04T05:25:58;7.07;;;3.90;;
422;SDS011;198;48.752;9.180;2022-10-04T05:28:26;5.50;;;3.90;;
422;SDS011;198;48.752;9.180;2022-10-04T05:31:03;8.10;;;4.33;;
422;SDS011;198;48.752;9.180;2022-10-04T05:33:59;24.70;;;5.57;;
422;SDS011;198;48.752;9.180;2022-10-04T05:36:35;7.13;;;4.13;;
422;SDS011;198;48.752;9.180;2022-10-04T05:41:53;5.80;;;3.53;;
422;SDS011;198;48.752;9.180;2022-10-04T05:44:28;10.90;;;4.13;;
422;SDS011;198;48.752;9.180;2022-10-04T05:46:59;9.30;;;4.40;;
422;SDS011;198;48.752;9.180;2022-10-04T05:49:27;10.43;;;5.13;;
422;SDS011;198;48.752;9.180;2022-10-04T05:52:05;12.20;;;4.40;;
422;SDS011;198;48.752;9.180;2022-10-04T06:17:50;17.43;;;5.37;;
422;SDS011;198;48.752;9.180;2022-10-04T06:23:36;12.80;;;4.97;;
422;SDS011;198;48.752;9.180;2022-10-04T06:26:12;14.73;;;5.50;;
422;SDS011;198;48.752;9.180;2022-10-04T06:28:44;16.20;;;4.60;;
422;SDS011;198;48.752;9.180;2022-10-04T06:34:44;16.47;;;6.03;;
422;SDS011;198;48.752;9.180;2022-10-04T06:37:05;9.73;;;5.03;;
422;SDS011;198;48.752;9.180;2022-10-04T06:43:12;10.77;;;4.40;;
422;SDS011;198;48.752;9.180;2022-10-04T06:45:58;24.67;;;6.47;;
422;SDS011;198;48.752;9.180;2022-10-04T06:51:51;12.07;;;4.90;;
422;SDS011;198;48.752;9.180;2022-10-04T07:01:21;11.03;;;6.37;;
422;SDS011;198;48.752;9.180;2022-10-04T07:06:26;9.77;;;5.60;;
422;SDS011;198;48.752;9.180;2022-10-04T07:08:58;13.03;;;5.00;;
422;SDS011;198;48.752;9.180;2022-10-04T07:11:29;7.50;;;4.23;;
422;SDS011;198;48.752;9.180;2022-10-04T07:16:45;10.00;;;4.30;;
422;SDS011;198;48.752;9.180;2022-10-04T07:21:50;12.30;;;4.57;;
422;SDS011;198;48.752;9.180;2022-10-04T07:27:31;15.23;;;4.00;;
422;SDS011;198;48.752;9.180;2022-10-04T07:30:52;13.83;;;3.47;;
422;SDS011;198;48.752;9.180;2022-10-04T07:33:23;22.43;;;4.87;;
422;SDS011;198;48.752;9.180;2022-10-04T07:36:00;9.50;;;3.27;;
422;SDS011;198;48.752;9.180;2022-10-04T07:38:32;10.27;;;4.30;;
422;SDS011;198;48.752;9.180;2022-10-04T07:44:01;18.73;;;3.50;;
422;SDS011;198;48.752;9.180;2022-10-04T07:49:42;9.13;;;4.13;;
422;SDS011;198;48.752;9.180;2022-10-04T08:00:35;11.27;;;4.30;;
422;SDS011;198;48.752;9.180;2022-10-04T08:03:34;9.83;;;4.17;;
422;SDS011;198;48.752;9.180;2022-10-04T08:06:08;11.07;;;3.97;;
422;SDS011;198;48.752;9.180;2022-10-04T08:08:59;11.33;;;4.20;;
422;SDS011;198;48.752;9.180;2022-10-04T08:22:41;10.70;;;5.43;;
422;SDS011;198;48.752;9.180;2022-10-04T08:31:08;13.40;;;3.90;;
422;SDS011;198;48.752;9.180;2022-10-04T08:33:50;11.40;;;3.90;;
422;SDS011;198;48.752;9.180;2022-10-04T08:36:35;7.20;;;4.00;;
422;SDS011;198;48.752;9.180;2022-10-04T08:39:46;14.23;;;4.30;;
422;SDS011;198;48.752;9.180;2022-10-04T08:45:19;7.97;;;4.03;;
422;SDS011;198;48.752;9.180;2022-10-04T08:48:01;10.00;;;4.37;;
422;SDS011;198;48.752;9.180;2022-10-04T09:01:56;14.87;;;3.67;;
422;SDS011;198;48.752;9.180;2022-10-04T09:05:00;13.53;;;4.13;;
422;SDS011;198;48.752;9.180;2022-10-04T09:19:22;5.37;;;3.07;;
422;SDS011;198;48.752;9.180;2022-10-04T09:24:57;7.00;;;3.00;;
422;SDS011;198;48.752;9.180;2022-10-04T09:27:44;7.20;;;2.90;;
422;SDS011;198;48.752;9.180;2022-10-04T09:30:47;4.93;;;2.20;;
422;SDS011;198;48.752;9.180;2022-10-04T09:52:53;7.87;;;3.40;;
422;SDS011;198;48.752;9.180;2022-10-04T09:55:47;4.77;;;2.57;;
422;SDS011;198;48.752;9.180;2022-10-04T10:24:16;6.27;;;3.10;;
422;SDS011;198;48.752;9.180;2022-10-04T10:27:14;4.80;;;2.33;;
422;SDS011;198;48.752;9.180;2022-10-04T10:41:27;10.93;;;3.67;;
422;SDS011;198;48.752;9.180;2022-10-04T10:47:03;7.83;;;3.07;;
422;SDS011;198;48.752;9.180;2022-10-04T10:50:05;8.13;;;3.50;;
422;SDS011;198;48.752;9.180;2022-10-04T10:56:04;3.27;;;2.67;;
422;SDS011;198;48.752;9.180;2022-10-04T11:04:28;6.97;;;3.07;;
422;SDS011;198;48.752;9.180;2022-10-04T11:18:57;4.60;;;3.27;;
422;SDS011;198;48.752;9.180;2022-10-04T11:21:51;5.63;;;2.67;;
422;SDS011;198;48.752;9.180;2022-10-04T11:27:12;9.03;;;3.20;;
422;SDS011;198;48.752;9.180;2022-10-04T11:38:32;5.97;;;2.37;;
422;SDS011;198;48.752;9.180;2022-10-04T11:44:30;10.40;;;2.50;;
422;SDS011;198;48.752;9.180;2022-10-04T11:50:05;6.23;;;1.93;;
422;SDS011;198;48.752;9.180;2022-10-04T12:03:38;4.50;;;1.97;;
422;SDS011;198;48.752;9.180;2022-10-04T12:06:25;4.20;;;2.27;;
422;SDS011;198;48.752;9.180;2022-10-04T12:12:17;4.97;;;2.77;;
422;SDS011;198;48.752;9.180;2022-10-04T12:17:48;4.00;;;1.93;;
422;SDS011;198;48.752;9.180;2022-10-04T12:26:29;4.23;;;2.03;;
422;SDS011;198;48.752;9.180;2022-10-04T12:34:35;4.13;;;1.77;;
422;SDS011;198;48.752;9.180;2022-10-04T12:37:26;5.57;;;2.43;;
422;SDS011;198;48.752;9.180;2022-10-04T12:45:39;5.20;;;2.23;;
422;SDS011;198;48.752;9.180;2022-10-04T12:52:17;7.63;;;1.80;;
422;SDS011;198;48.752;9.180;2022-10-04T12:59:33;8.20;;;1.57;;
422;SDS011;198;48.752;9.180;2022-10-04T13:05:02;4.50;;;2.17;;
422;SDS011;198;48.752;9.180;2022-10-04T13:07:56;3.73;;;1.80;;
422;SDS011;198;48.752;9.180;2022-10-04T13:24:24;4.87;;;1.80;;
422;SDS011;198;48.752;9.180;2022-10-04T13:26:59;2.80;;;1.60;;
422;SDS011;198;48.752;9.180;2022-10-04T13:29:32;4.40;;;2.00;;
422;SDS011;198;48.752;9.180;2022-10-04T13:33:16;3.10;;;2.13;;
422;SDS011;198;48.752;9.180;2022-10-04T13:35:25;4.93;;;2.23;;
422;SDS011;198;48.752;9.180;2022-10-04T13:38:24;4.57;;;2.53;;
422;SDS011;198;48.752;9.180;2022-10-04T13:49:55;3.20;;;2.30;;
422;SDS011;198;48.752;9.180;2022-10-04T13:52:42;5.07;;;2.30;;
422;SDS011;198;48.752;9.180;2022-10-04T14:24:55;7.30;;;2.00;;
422;SDS011;198;48.752;9.180;2022-10-04T14:39:49;2.90;;;2.20;;
422;SDS011;198;48.752;9.180;2022-10-04T14:42:48;4.00;;;2.23;;
422;SDS011;198;48.752;9.180;2022-10-04T14:53:54;6.40;;;2.20;;
422;SDS011;198;48.752;9.180;2022-10-04T14:56:41;5.47;;;2.10;;
422;SDS011;198;48.752;9.180;2022-10-04T15:07:48;3.50;;;1.87;;
422;SDS011;198;48.752;9.180;2022-10-04T15:10:32;3.00;;;2.40;;
422;SDS011;198;48.752;9.180;2022-10-04T15:13:02;2.47;;;2.00;;
422;SDS011;198;48.752;9.180;2022-10-04T15:21:40;2.17;;;1.77;;
422;SDS011;198;48.752;9.180;2022-10-04T15:24:25;3.03;;;1.50;;
422;SDS011;198;48.752;9.180;2022-10-04T15:27:34;3.33;;;1.80;;
422;SDS011;198;48.752;9.180;2022-10-04T15:41:18;5.10;;;1.83;;
422;SDS011;198;48.752;9.180;2022-10-04T15:46:40;4.47;;;1.57;;
422;SDS011;198;48.752;9.180;2022-10-04T15:49:28;5.43;;;1.93;;
422;SDS011;198;48.752;9.180;2022-10-04T16:00:21;2.27;;;1.90;;
422;SDS011;198;48.752;9.180;2022-10-04T16:03:14;9.80;;;2.37;;
422;SDS011;198;48.752;9.180;2022-10-04T16:09:23;2.60;;;1.90;;
422;SDS011;198;48.752;9.180;2022-10-04T16:17:10;4.53;;;2.40;;
422;SDS011;198;48.752;9.180;2022-10-04T16:19:51;2.50;;;1.87;;
422;SDS011;198;48.752;9.180;2022-10-04T16:22:26;7.50;;;2.40;;
422;SDS011;198;48.752;9.180;2022-10-04T16:24:56;6.10;;;2.50;;
422;SDS011;198;48.752;9.180;2022-10-04T16:30:04;2.50;;;1.80;;
422;SDS011;198;48.752;9.180;2022-10-04T16:35:41;7.73;;;2.40;;
422;SDS011;198;48.752;9.180;2022-10-04T16:38:21;2.43;;;2.07;;
422;SDS011;198;48.752;9.180;2022-10-04T16:48:38;3.87;;;2.27;;
422;SDS011;198;48.752;9.180;2022-10-04T16:53:56;8.80;;;3.00;;
422;SDS011;198;48.752;9.180;2022-10-04T16:56:29;2.70;;;2.10;;
422;SDS011;198;48.752;9.180;2022-10-04T17:02:05;4.93;;;2.27;;
422;SDS011;198;48.752;9.180;2022-10-04T17:13:22;7.33;;;2.10;;
422;SDS011;198;48.752;9.180;2022-10-04T17:16:10;5.53;;;2.63;;
422;SDS011;198;48.752;9.180;2022-10-04T17:27:01;11.00;;;2.93;;
422;SDS011;198;48.752;9.180;2022-10-04T17:38:12;6.03;;;3.40;;
422;SDS011;198;48.752;9.180;2022-10-04T17:41:05;5.43;;;3.00;;
422;SDS011;198;48.752;9.180;2022-10-04T17:46:21;3.10;;;2.67;;
422;SDS011;198;48.752;9.180;2022-10-04T17:51:46;9.87;;;4.10;;
422;SDS011;198;48.752;9.180;2022-10-04T17:57:22;4.00;;;3.17;;
422;SDS011;198;48.752;9.180;2022-10-04T18:00:09;10.33;;;3.67;;
422;SDS011;198;48.752;9.180;2022-10-04T18:02:48;7.40;;;2.90;;
422;SDS011;198;48.752;9.180;2022-10-04T18:08:33;10.10;;;3.57;;
422;SDS011;198;48.752;9.180;2022-10-04T18:11:05;30.23;;;3.90;;
422;SDS011;198;48.752;9.180;2022-10-04T18:13:46;6.33;;;3.20;;
422;SDS011;198;48.752;9.180;2022-10-04T18:16:28;4.60;;;3.40;;
422;SDS011;198;48.752;9.180;2022-10-04T18:18:55;8.60;;;3.47;;
422;SDS011;198;48.752;9.180;2022-10-04T18:21:27;9.67;;;3.67;;
422;SDS011;198;48.752;9.180;2022-10-04T18:26:20;7.37;;;3.60;;
422;SDS011;198;48.752;9.180;2022-10-04T18:28:48;4.10;;;3.33;;
422;SDS011;198;48.752;9.180;2022-10-04T18:31:29;5.10;;;2.70;;
422;SDS011;198;48.752;9.180;2022-10-04T18:33:57;6.93;;;2.63;;
422;SDS011;198;48.752;9.180;2022-10-04T18:36:29;4.33;;;2.83;;
422;SDS011;198;48.752;9.180;2022-10-04T18:39:17;6.80;;;3.20;;
422;SDS011;198;48.752;9.180;2022-10-04T18:41:57;5.20;;;2.97;;
422;SDS011;198;48.752;9.180;2022-10-04T18:44:43;5.10;;;2.80;;
422;SDS011;198;48.752;9.180;2022-10-04T18:47:28;7.87;;;3.17;;
422;SDS011;198;48.752;9.180;2022-10-04T18:50:00;7.10;;;2.90;;
422;SDS011;198;48.752;9.180;2022-10-04T18:55:25;5.73;;;2.97;;
422;SDS011;198;48.752;9.180;2022-10-04T19:01:28;9.00;;;2.80;;
422;SDS011;198;48.752;9.180;2022-10-04T19:12:30;6.37;;;3.63;;
422;SDS011;198;48.752;9.180;2022-10-04T19:17:54;9.73;;;3.10;;
422;SDS011;198;48.752;9.180;2022-10-04T19:23:42;5.60;;;3.50;;
422;SDS011;198;48.752;9.180;2022-10-04T19:32:05;5.63;;;3.63;;
422;SDS011;198;48.752;9.180;2022-10-04T19:34:51;3.07;;;2.73;;
422;SDS011;198;48.752;9.180;2022-10-04T19:37:29;6.07;;;3.17;;
422;SDS011;198;48.752;9.180;2022-10-04T19:42:46;6.60;;;3.33;;
422;SDS011;198;48.752;9.180;2022-10-04T19:47:52;8.47;;;3.20;;
422;SDS011;198;48.752;9.180;2022-10-04T19:50:31;7.87;;;3.73;;
422;SDS011;198;48.752;9.180;2022-10-04T19:53:06;6.57;;;3.80;;
422;SDS011;198;48.752;9.180;2022-10-04T19:55:54;21.37;;;3.00;;
422;SDS011;198;48.752;9.180;2022-10-04T20:01:09;6.80;;;2.87;;
422;SDS011;198;48.752;9.180;2022-10-04T20:03:36;8.63;;;3.93;;
422;SDS011;198;48.752;9.180;2022-10-04T20:06:02;6.00;;;3.43;;
422;SDS011;198;48.752;9.180;2022-10-04T20:11:15;10.40;;;3.60;;
422;SDS011;198;48.752;9.180;2022-10-04T20:21:51;4.93;;;3.30;;
422;SDS011;198;48.752;9.180;2022-10-04T20:25:02;5.07;;;3.60;;
422;SDS011;198;48.752;9.180;2022-10-04T20:34:54;4.57;;;2.90;;
422;SDS011;198;48.752;9.180;2022-10-04T20:38:11;5.30;;;3.47;;
422;SDS011;198;48.752;9.180;2022-10-04T20:45:43;3.20;;;2.60;;
422;SDS011;198;48.752;9.180;2022-10-04T20:48:11;4.57;;;2.97;;
422;SDS011;198;48.752;9.180;2022-10-04T20:50:42;6.07;;;3.50;;
422;SDS011;198;48.752;9.180;2022-10-04T20:53:23;7.07;;;3.50;;
422;SDS011;198;48.752;9.180;2022-10-04T20:55:51;6.53;;;2.80;;
422;SDS011;198;48.752;9.180;2022-10-04T20:58:35;10.43;;;3.00;;
422;SDS011;198;48.752;9.180;2022-10-04T21:01:20;3.60;;;2.70;;
422;SDS011;198;48.752;9.180;2022-10-04T21:06:56;4.70;;;3.07;;
422;SDS011;198;48.752;9.180;2022-10-04T21:09:27;8.63;;;3.53;;
422;SDS011;198;48.752;9.180;2022-10-04T21:11:54;5.83;;;3.57;;
422;SDS011;198;48.752;9.180;2022-10-04T21:14:21;6.27;;;3.63;;
422;SDS011;198;48.752;9.180;2022-10-04T21:17:04;11.90;;;3.60;;
422;SDS011;198;48.752;9.180;2022-10-04T21:19:51;6.83;;;3.67;;
422;SDS011;198;48.752;9.180;2022-10-04T21:30:05;7.40;;;3.80;;
422;SDS011;198;48.752;9.180;2022-10-04T21:32:36;9.97;;;5.33;;
422;SDS011;198;48.752;9.180;2022-10-04T21:35:05;6.33;;;4.17;;
422;SDS011;198;48.752;9.180;2022-10-04T21:37:32;8.80;;;3.30;;
422;SDS011;198;48.752;9.180;2022-10-04T21:39:58;8.60;;;3.97;;
422;SDS011;198;48.752;9.180;2022-10-04T21:42:24;5.67;;;3.60;;
422;SDS011;198;48.752;9.180;2022-10-04T21:44:49;6.60;;;4.07;;
422;SDS011;198;48.752;9.180;2022-10-04T21:47:15;9.87;;;4.60;;
422;SDS011;198;48.752;9.180;2022-10-04T21:49:41;8.97;;;4.03;;
422;SDS011;198;48.752;9.180;2022-10-04T21:52:07;7.87;;;4.10;;
422;SDS011;198;48.752;9.180;2022-10-04T21:54:33;12.63;;;4.27;;
422;SDS011;198;48.752;9.180;2022-10-04T21:56:59;10.80;;;4.47;;
422;SDS011;198;48.752;9.180;2022-10-04T21:59:24;12.00;;;4.00;;
422;SDS011;198;48.752;9.180;2022-10-04T22:01:50;9.63;;;4.87;;
422;SDS011;198;48.752;9.180;2022-10-04T22:04:16;9.27;;;4.53;;
422;SDS011;198;48.752;9.180;2022-10-04T22:06:42;22.93;;;4.90;;
422;SDS011;198;48.752;9.180;2022-10-04T22:09:07;6.10;;;3.70;;
422;SDS011;198;48.752;9.180;2022-10-04T22:11:34;12.20;;;4.97;;
422;SDS011;198;48.752;9.180;2022-10-04T22:14:00;20.43;;;4.83;;
422;SDS011;198;48.752;9.180;2022-10-04T22:16:25;8.73;;;4.70;;
422;SDS011;198;48.752;9.180;2022-10-04T22:18:51;7.53;;;4.43;;
422;SDS011;198;48.752;9.180;2022-10-04T22:21:16;7.17;;;4.37;;
422;SDS011;198;48.752;9.180;2022-10-04T22:23:42;15.43;;;5.10;;
422;SDS011;198;48.752;9.180;2022-10-04T22:26:09;10.20;;;5.53;;
422;SDS011;198;48.752;9.180;2022-10-04T22:28:42;6.33;;;3.70;;
422;SDS011;198;48.752;9.180;2022-10-04T22:31:10;6.57;;;3.77;;
422;SDS011;198;48.752;9.180;2022-10-04T22:33:38;7.80;;;4.23;;
422;SDS011;198;48.752;9.180;2022-10-04T22:36:19;16.40;;;4.53;;
422;SDS011;198;48.752;9.180;2022-10-04T22:38:57;8.60;;;5.00;;
422;SDS011;198;48.752;9.180;2022-10-04T22:41:32;10.00;;;4.50;;
422;SDS011;198;48.752;9.180;2022-10-04T22:46:43;4.70;;;3.83;;
422;SDS011;198;48.752;9.180;2022-10-04T22:49:12;8.40;;;3.87;;
422;SDS011;198;48.752;9.180;2022-10-04T22:51:41;7.10;;;4.20;;
422;SDS011;198;48.752;9.180;2022-10-04T22:54:18;7.47;;;4.30;;
422;SDS011;198;48.752;9.180;2022-10-04T22:56:45;8.00;;;3.60;;
422;SDS011;198;48.752;9.180;2022-10-04T22:59:12;6.27;;;3.97;;
422;SDS011;198;48.752;9.180;2022-10-04T23:01:40;6.57;;;3.77;;
422;SDS011;198;48.752;9.180;2022-10-04T23:04:11;12.73;;;4.13;;
422;SDS011;198;48.752;9.180;2022-10-04T23:06:42;5.10;;;3.73;;
422;SDS011;198;48.752;9.180;2022-10-04T23:09:08;7.60;;;4.00;;
422;SDS011;198;48.752;9.180;2022-10-04T23:11:33;6.50;;;4.10;;
422;SDS011;198;48.752;9.180;2022-10-04T23:13:59;6.73;;;4.00;;
422;SDS011;198;48.752;9.180;2022-10-04T23:16:24;6.47;;;4.50;;
422;SDS011;198;48.752;9.180;2022-10-04T23:18:51;11.60;;;4.40;;
422;SDS011;198;48.752;9.180;2022-10-04T23:21:30;6.80;;;4.43;;
422;SDS011;198;48.752;9.180;2022-10-04T23:23:59;7.50;;;4.23;;
422;SDS011;198;48.752;9.180;2022-10-04T23:26:34;9.90;;;4.37;;
422;SDS011;198;48.752;9.180;2022-10-04T23:29:05;8.00;;;4.00;;
422;SDS011;198;48.752;9.180;2022-10-04T23:31:38;6.47;;;4.10;;
422;SDS011;198;48.752;9.180;2022-10-04T23:34:09;12.13;;;3.80;;
422;SDS011;198;48.752;9.180;2022-10-04T23:36:40;9.90;;;4.53;;
422;SDS011;198;48.752;9.180;2022-10-04T23:39:07;4.80;;;3.43;;
422;SDS011;198;48.752;9.180;2022-10-04T23:41:41;7.40;;;4.00;;
422;SDS011;198;48.752;9.180;2022-10-04T23:44:09;8.50;;;4.70;;
422;SDS011;198;48.752;9.180;2022-10-04T23:46:37;5.60;;;3.80;;
422;SDS011;198;48.752;9.180;2022-10-04T23:49:02;7.07;;;4.00;;
422;SDS011;198;48.752;9.180;2022-10-04T23:51:28;8.83;;;4.90;;
422;SDS011;198;48.752;9.180;2022-10-04T23:53:54;7.63;;;4.53;;
422;SDS011;198;48.752;9.180;2022-10-04T23:56:23;10.23;;;5.43;;
422;SDS011;198;48.752;9.180;2022-10-04T23:58:51;11.10;;;5.00;;
